sensor_id;sensor_type;location;lat;lon;timestamp;P1;P2;P0
28026;PMS5003;15344;52.342;-1.290;2023-05-10T00:00:12;19;17;
28026;PMS5003;15344;52.342;-1.290;2023-05-10T00:02:37;12;10;
28026;PMS5003;15344;52.342;-1.290;2023-05-10T00:05:03;10;9;
28026;PMS5003;15344;52.342;-1.290;2023-05-10T00:07:28;9;9;
28026;PMS5003;15344;52.342;-1.290;2023-05-10T00:09:53;17;13;
28026;PMS5003;15344;52.342;-1.290;2023-05-10T00:12:18;14;12;
28026;PMS5003;15344;52.342;-1.290;2023-05-10T00:14:44;12;10;
28026;PMS5003;15344;52.342;-1.290;2023-05-10T00:17:09;12;12;
28026;PMS5003;15344;52.342;-1.290;2023-05-10T00:19:34;19;14;
28026;PMS5003;15344;52.342;-1.290;2023-05-10T00:21:59;15;15;
28026;PMS5003;15344;52.342;-1.290;2023-05-10T00:24:30;16;14;
28026;PMS5003;15344;52.342;-1.290;2023-05-10T00:26:50;17;14;
28026;PMS5003;15344;52.342;-1.290;2023-05-10T00:29:15;16;13;
28026;PMS5003;15344;52.342;-1.290;2023-05-10T00:31:40;15;13;
28026;PMS5003;15344;52.342;-1.290;2023-05-10T00:34:05;13;11;
28026;PMS5003;15344;52.342;-1.290;2023-05-10T00:36:31;14;12;
28026;PMS5003;15344;52.342;-1.290;2023-05-10T00:38:57;15;13;
28026;PMS5003;15344;52.342;-1.290;2023-05-10T00:41:23;19;15;
28026;PMS5003;15344;52.342;-1.290;2023-05-10T00:43:48;14;12;
28026;PMS5003;15344;52.342;-1.290;2023-05-10T00:46:14;17;15;
28026;PMS5003;15344;52.342;-1.290;2023-05-10T00:48:39;14;13;
28026;PMS5003;15344;52.342;-1.290;2023-05-10T00:51:05;11;11;
28026;PMS5003;15344;52.342;-1.290;2023-05-10T00:53:31;14;14;
28026;PMS5003;15344;52.342;-1.290;2023-05-10T00:55:55;11;11;
28026;PMS5003;15344;52.342;-1.290;2023-05-10T00:58:20;14;10;
28026;PMS5003;15344;52.342;-1.290;2023-05-10T01:00:45;13;10;
28026;PMS5003;15344;52.342;-1.290;2023-05-10T01:03:11;15;11;
28026;PMS5003;15344;52.342;-1.290;2023-05-10T01:05:36;14;10;
28026;PMS5003;15344;52.342;-1.290;2023-05-10T01:08:02;12;11;
28026;PMS5003;15344;52.342;-1.290;2023-05-10T01:10:27;13;12;
28026;PMS5003;15344;52.342;-1.290;2023-05-10T01:12:58;9;7;
28026;PMS5003;15344;52.342;-1.290;2023-05-10T01:15:18;10;8;
28026;PMS5003;15344;52.342;-1.290;2023-05-10T01:17:44;14;9;
28026;PMS5003;15344;52.342;-1.290;2023-05-10T01:20:09;13;9;
28026;PMS5003;15344;52.342;-1.290;2023-05-10T01:25:09;13;11;
28026;PMS5003;15344;52.342;-1.290;2023-05-10T01:32:20;7;6;
28026;PMS5003;15344;52.342;-1.290;2023-05-10T01:34:43;8;8;
28026;PMS5003;15344;52.342;-1.290;2023-05-10T01:37:08;9;8;
28026;PMS5003;15344;52.342;-1.290;2023-05-10T01:39:36;8;7;
28026;PMS5003;15344;52.342;-1.290;2023-05-10T01:41:59;8;7;
28026;PMS5003;15344;52.342;-1.290;2023-05-10T01:44:26;14;8;
28026;PMS5003;15344;52.342;-1.290;2023-05-10T01:46:50;9;9;
28026;PMS5003;15344;52.342;-1.290;2023-05-10T01:49:16;11;9;
28026;PMS5003;15344;52.342;-1.290;2023-05-10T01:51:41;11;9;
28026;PMS5003;15344;52.342;-1.290;2023-05-10T01:54:05;16;10;
28026;PMS5003;15344;52.342;-1.290;2023-05-10T01:56:32;15;13;
28026;PMS5003;15344;52.342;-1.290;2023-05-10T01:58:55;10;10;
28026;PMS5003;15344;52.342;-1.290;2023-05-10T02:01:20;14;12;
28026;PMS5003;15344;52.342;-1.290;2023-05-10T02:03:46;13;13;
28026;PMS5003;15344;52.342;-1.290;2023-05-10T02:06:11;11;10;
28026;PMS5003;15344;52.342;-1.290;2023-05-10T02:08:37;12;12;
28026;PMS5003;15344;52.342;-1.290;2023-05-10T02:11:02;14;8;
28026;PMS5003;15344;52.342;-1.290;2023-05-10T02:13:27;15;10;
28026;PMS5003;15344;52.342;-1.290;2023-05-10T02:15:52;17;13;
28026;PMS5003;15344;52.342;-1.290;2023-05-10T02:18:18;10;8;
28026;PMS5003;15344;52.342;-1.290;2023-05-10T02:20:43;7;7;
28026;PMS5003;15344;52.342;-1.290;2023-05-10T02:23:08;9;8;
28026;PMS5003;15344;52.342;-1.290;2023-05-10T02:25:34;12;9;
28026;PMS5003;15344;52.342;-1.290;2023-05-10T02:27:59;7;6;
28026;PMS5003;15344;52.342;-1.290;2023-05-10T02:30:24;8;8;
28026;PMS5003;15344;52.342;-1.290;2023-05-10T02:32:50;10;8;
28026;PMS5003;15344;52.342;-1.290;2023-05-10T02:35:15;13;10;
28026;PMS5003;15344;52.342;-1.290;2023-05-10T02:37:40;11;8;
28026;PMS5003;15344;52.342;-1.290;2023-05-10T02:40:06;8;8;
28026;PMS5003;15344;52.342;-1.290;2023-05-10T02:42:32;13;10;
28026;PMS5003;15344;52.342;-1.290;2023-05-10T02:44:58;13;11;
28026;PMS5003;15344;52.342;-1.290;2023-05-10T02:47:22;12;10;
28026;PMS5003;15344;52.342;-1.290;2023-05-10T02:49:47;14;10;
28026;PMS5003;15344;52.342;-1.290;2023-05-10T02:52:13;13;11;
28026;PMS5003;15344;52.342;-1.290;2023-05-10T02:54:39;10;9;
28026;PMS5003;15344;52.342;-1.290;2023-05-10T02:57:04;13;11;
28026;PMS5003;15344;52.342;-1.290;2023-05-10T02:59:29;12;11;
28026;PMS5003;15344;52.342;-1.290;2023-05-10T03:01:54;10;10;
28026;PMS5003;15344;52.342;-1.290;2023-05-10T03:04:19;8;7;
28026;PMS5003;15344;52.342;-1.290;2023-05-10T03:06:44;8;7;
28026;PMS5003;15344;52.342;-1.290;2023-05-10T03:09:10;7;6;
28026;PMS5003;15344;52.342;-1.290;2023-05-10T03:11:39;11;8;
28026;PMS5003;15344;52.342;-1.290;2023-05-10T03:14:05;7;7;
28026;PMS5003;15344;52.342;-1.290;2023-05-10T03:16:27;7;7;
28026;PMS5003;15344;52.342;-1.290;2023-05-10T03:18:54;8;8;
28026;PMS5003;15344;52.342;-1.290;2023-05-10T03:21:18;11;7;
28026;PMS5003;15344;52.342;-1.290;2023-05-10T03:23:45;10;10;
28026;PMS5003;15344;52.342;-1.290;2023-05-10T03:26:09;13;10;
28026;PMS5003;15344;52.342;-1.290;2023-05-10T03:28:35;16;10;
28026;PMS5003;15344;52.342;-1.290;2023-05-10T03:31:00;7;7;
28026;PMS5003;15344;52.342;-1.290;2023-05-10T03:33:25;11;8;
28026;PMS5003;15344;52.342;-1.290;2023-05-10T03:35:51;5;5;
28026;PMS5003;15344;52.342;-1.290;2023-05-10T03:38:16;7;6;
28026;PMS5003;15344;52.342;-1.290;2023-05-10T03:40:41;10;8;
28026;PMS5003;15344;52.342;-1.290;2023-05-10T03:43:07;8;7;
28026;PMS5003;15344;52.342;-1.290;2023-05-10T03:45:32;8;8;
28026;PMS5003;15344;52.342;-1.290;2023-05-10T03:47:58;8;7;
28026;PMS5003;15344;52.342;-1.290;2023-05-10T03:50:23;10;8;
28026;PMS5003;15344;52.342;-1.290;2023-05-10T03:52:49;9;7;
28026;PMS5003;15344;52.342;-1.290;2023-05-10T03:55:14;9;7;
28026;PMS5003;15344;52.342;-1.290;2023-05-10T03:57:40;6;6;
28026;PMS5003;15344;52.342;-1.290;2023-05-10T04:00:06;10;10;
28026;PMS5003;15344;52.342;-1.290;2023-05-10T04:02:31;7;7;
28026;PMS5003;15344;52.342;-1.290;2023-05-10T04:04:56;9;7;
28026;PMS5003;15344;52.342;-1.290;2023-05-10T04:07:22;8;8;
28026;PMS5003;15344;52.342;-1.290;2023-05-10T04:09:47;10;8;
28026;PMS5003;15344;52.342;-1.290;2023-05-10T04:12:13;9;8;
28026;PMS5003;15344;52.342;-1.290;2023-05-10T04:14:38;13;10;
28026;PMS5003;15344;52.342;-1.290;2023-05-10T04:17:04;11;9;
28026;PMS5003;15344;52.342;-1.290;2023-05-10T04:19:29;7;6;
28026;PMS5003;15344;52.342;-1.290;2023-05-10T04:21:55;8;8;
28026;PMS5003;15344;52.342;-1.290;2023-05-10T04:24:21;8;8;
28026;PMS5003;15344;52.342;-1.290;2023-05-10T04:26:46;9;9;
28026;PMS5003;15344;52.342;-1.290;2023-05-10T04:29:12;15;8;
28026;PMS5003;15344;52.342;-1.290;2023-05-10T04:31:37;12;8;
28026;PMS5003;15344;52.342;-1.290;2023-05-10T04:34:03;9;6;
28026;PMS5003;15344;52.342;-1.290;2023-05-10T04:36:28;13;11;
28026;PMS5003;15344;52.342;-1.290;2023-05-10T04:38:53;11;9;
28026;PMS5003;15344;52.342;-1.290;2023-05-10T04:41:19;13;9;
28026;PMS5003;15344;52.342;-1.290;2023-05-10T04:43:44;13;10;
28026;PMS5003;15344;52.342;-1.290;2023-05-10T04:46:10;6;6;
28026;PMS5003;15344;52.342;-1.290;2023-05-10T04:48:36;12;12;
28026;PMS5003;15344;52.342;-1.290;2023-05-10T04:51:01;13;9;
28026;PMS5003;15344;52.342;-1.290;2023-05-10T04:53:26;8;6;
28026;PMS5003;15344;52.342;-1.290;2023-05-10T04:55:52;5;5;
28026;PMS5003;15344;52.342;-1.290;2023-05-10T04:58:18;8;6;
28026;PMS5003;15344;52.342;-1.290;2023-05-10T05:00:44;17;13;
28026;PMS5003;15344;52.342;-1.290;2023-05-10T05:03:09;7;7;
28026;PMS5003;15344;52.342;-1.290;2023-05-10T05:05:35;8;6;
28026;PMS5003;15344;52.342;-1.290;2023-05-10T05:08:00;8;6;
28026;PMS5003;15344;52.342;-1.290;2023-05-10T05:10:25;8;5;
28026;PMS5003;15344;52.342;-1.290;2023-05-10T05:12:51;10;6;
28026;PMS5003;15344;52.342;-1.290;2023-05-10T05:15:16;9;6;
28026;PMS5003;15344;52.342;-1.290;2023-05-10T05:17:42;7;7;
28026;PMS5003;15344;52.342;-1.290;2023-05-10T05:20:07;6;6;
28026;PMS5003;15344;52.342;-1.290;2023-05-10T05:22:32;5;5;
28026;PMS5003;15344;52.342;-1.290;2023-05-10T05:24:57;9;5;
28026;PMS5003;15344;52.342;-1.290;2023-05-10T05:27:23;8;5;
28026;PMS5003;15344;52.342;-1.290;2023-05-10T05:29:48;7;5;
28026;PMS5003;15344;52.342;-1.290;2023-05-10T05:32:13;4;4;
28026;PMS5003;15344;52.342;-1.290;2023-05-10T05:34:39;7;5;
28026;PMS5003;15344;52.342;-1.290;2023-05-10T05:37:04;5;4;
28026;PMS5003;15344;52.342;-1.290;2023-05-10T05:39:29;6;5;
28026;PMS5003;15344;52.342;-1.290;2023-05-10T05:41:54;10;6;
28026;PMS5003;15344;52.342;-1.290;2023-05-10T05:44:20;4;4;
28026;PMS5003;15344;52.342;-1.290;2023-05-10T05:46:45;6;4;
28026;PMS5003;15344;52.342;-1.290;2023-05-10T05:49:10;10;5;
28026;PMS5003;15344;52.342;-1.290;2023-05-10T05:51:36;8;5;
28026;PMS5003;15344;52.342;-1.290;2023-05-10T05:54:01;8;6;
28026;PMS5003;15344;52.342;-1.290;2023-05-10T05:56:27;6;6;
28026;PMS5003;15344;52.342;-1.290;2023-05-10T05:58:52;8;6;
28026;PMS5003;15344;52.342;-1.290;2023-05-10T06:01:17;4;4;
28026;PMS5003;15344;52.342;-1.290;2023-05-10T06:03:43;8;5;
28026;PMS5003;15344;52.342;-1.290;2023-05-10T06:06:08;7;6;
28026;PMS5003;15344;52.342;-1.290;2023-05-10T06:08:33;6;5;
28026;PMS5003;15344;52.342;-1.290;2023-05-10T06:10:58;5;5;
28026;PMS5003;15344;52.342;-1.290;2023-05-10T06:13:24;8;6;
28026;PMS5003;15344;52.342;-1.290;2023-05-10T06:15:49;6;5;
28026;PMS5003;15344;52.342;-1.290;2023-05-10T06:18:14;9;6;
28026;PMS5003;15344;52.342;-1.290;2023-05-10T06:20:40;5;3;
28026;PMS5003;15344;52.342;-1.290;2023-05-10T06:23:05;10;5;
28026;PMS5003;15344;52.342;-1.290;2023-05-10T06:25:30;7;5;
28026;PMS5003;15344;52.342;-1.290;2023-05-10T06:27:56;5;4;
28026;PMS5003;15344;52.342;-1.290;2023-05-10T06:30:21;5;5;
28026;PMS5003;15344;52.342;-1.290;2023-05-10T06:32:46;6;3;
28026;PMS5003;15344;52.342;-1.290;2023-05-10T06:35:12;6;4;
28026;PMS5003;15344;52.342;-1.290;2023-05-10T06:37:37;6;5;
28026;PMS5003;15344;52.342;-1.290;2023-05-10T06:40:04;10;3;
28026;PMS5003;15344;52.342;-1.290;2023-05-10T06:42:28;8;5;
28026;PMS5003;15344;52.342;-1.290;2023-05-10T06:44:53;3;3;
28026;PMS5003;15344;52.342;-1.290;2023-05-10T06:47:18;4;4;
28026;PMS5003;15344;52.342;-1.290;2023-05-10T06:49:44;9;5;
28026;PMS5003;15344;52.342;-1.290;2023-05-10T06:52:09;6;5;
28026;PMS5003;15344;52.342;-1.290;2023-05-10T06:54:34;6;6;
28026;PMS5003;15344;52.342;-1.290;2023-05-10T06:57:00;8;5;
28026;PMS5003;15344;52.342;-1.290;2023-05-10T06:59:25;4;4;
28026;PMS5003;15344;52.342;-1.290;2023-05-10T07:01:51;7;5;
28026;PMS5003;15344;52.342;-1.290;2023-05-10T07:04:16;10;6;
28026;PMS5003;15344;52.342;-1.290;2023-05-10T07:06:41;5;3;
28026;PMS5003;15344;52.342;-1.290;2023-05-10T07:09:07;5;4;
28026;PMS5003;15344;52.342;-1.290;2023-05-10T07:11:32;6;3;
28026;PMS5003;15344;52.342;-1.290;2023-05-10T07:13:57;6;5;
28026;PMS5003;15344;52.342;-1.290;2023-05-10T07:16:23;4;3;
28026;PMS5003;15344;52.342;-1.290;2023-05-10T07:18:47;4;2;
28026;PMS5003;15344;52.342;-1.290;2023-05-10T07:21:13;4;3;
28026;PMS5003;15344;52.342;-1.290;2023-05-10T07:23:38;5;2;
28026;PMS5003;15344;52.342;-1.290;2023-05-10T07:26:03;4;4;
28026;PMS5003;15344;52.342;-1.290;2023-05-10T07:28:28;3;2;
28026;PMS5003;15344;52.342;-1.290;2023-05-10T07:30:54;2;2;
28026;PMS5003;15344;52.342;-1.290;2023-05-10T07:33:20;4;3;
28026;PMS5003;15344;52.342;-1.290;2023-05-10T07:35:45;5;4;
28026;PMS5003;15344;52.342;-1.290;2023-05-10T07:38:11;2;1;
28026;PMS5003;15344;52.342;-1.290;2023-05-10T07:40:38;1;1;
28026;PMS5003;15344;52.342;-1.290;2023-05-10T07:43:03;3;3;
28026;PMS5003;15344;52.342;-1.290;2023-05-10T07:45:29;2;2;
28026;PMS5003;15344;52.342;-1.290;2023-05-10T07:47:54;4;3;
28026;PMS5003;15344;52.342;-1.290;2023-05-10T07:50:20;3;2;
28026;PMS5003;15344;52.342;-1.290;2023-05-10T07:52:46;3;3;
28026;PMS5003;15344;52.342;-1.290;2023-05-10T07:55:12;5;3;
28026;PMS5003;15344;52.342;-1.290;2023-05-10T07:57:37;3;3;
28026;PMS5003;15344;52.342;-1.290;2023-05-10T08:00:03;4;3;
28026;PMS5003;15344;52.342;-1.290;2023-05-10T08:02:29;1;1;
28026;PMS5003;15344;52.342;-1.290;2023-05-10T08:04:55;2;2;
28026;PMS5003;15344;52.342;-1.290;2023-05-10T08:07:21;2;2;
28026;PMS5003;15344;52.342;-1.290;2023-05-10T08:09:46;1;1;
28026;PMS5003;15344;52.342;-1.290;2023-05-10T08:12:12;2;2;
28026;PMS5003;15344;52.342;-1.290;2023-05-10T08:14:38;3;3;
28026;PMS5003;15344;52.342;-1.290;2023-05-10T08:17:04;9;4;
28026;PMS5003;15344;52.342;-1.290;2023-05-10T08:19:29;2;2;
28026;PMS5003;15344;52.342;-1.290;2023-05-10T08:21:55;1;1;
28026;PMS5003;15344;52.342;-1.290;2023-05-10T08:24:21;2;2;
28026;PMS5003;15344;52.342;-1.290;2023-05-10T08:26:46;1;1;
28026;PMS5003;15344;52.342;-1.290;2023-05-10T08:29:12;3;3;
28026;PMS5003;15344;52.342;-1.290;2023-05-10T08:31:38;1;1;
28026;PMS5003;15344;52.342;-1.290;2023-05-10T08:34:04;4;3;
28026;PMS5003;15344;52.342;-1.290;2023-05-10T08:36:29;6;3;
28026;PMS5003;15344;52.342;-1.290;2023-05-10T08:38:55;1;1;
28026;PMS5003;15344;52.342;-1.290;2023-05-10T08:41:21;4;1;
28026;PMS5003;15344;52.342;-1.290;2023-05-10T08:43:46;4;2;
28026;PMS5003;15344;52.342;-1.290;2023-05-10T08:46:12;5;4;
28026;PMS5003;15344;52.342;-1.290;2023-05-10T08:48:38;3;1;
28026;PMS5003;15344;52.342;-1.290;2023-05-10T08:51:03;3;3;
28026;PMS5003;15344;52.342;-1.290;2023-05-10T08:53:29;7;3;
28026;PMS5003;15344;52.342;-1.290;2023-05-10T08:55:55;3;3;
28026;PMS5003;15344;52.342;-1.290;2023-05-10T08:58:20;3;3;
28026;PMS5003;15344;52.342;-1.290;2023-05-10T09:00:46;5;2;
28026;PMS5003;15344;52.342;-1.290;2023-05-10T09:03:12;5;2;
28026;PMS5003;15344;52.342;-1.290;2023-05-10T09:05:37;3;3;
28026;PMS5003;15344;52.342;-1.290;2023-05-10T09:08:03;6;3;
28026;PMS5003;15344;52.342;-1.290;2023-05-10T09:10:29;5;2;
28026;PMS5003;15344;52.342;-1.290;2023-05-10T09:12:55;4;2;
28026;PMS5003;15344;52.342;-1.290;2023-05-10T09:15:21;3;2;
28026;PMS5003;15344;52.342;-1.290;2023-05-10T09:17:46;2;2;
28026;PMS5003;15344;52.342;-1.290;2023-05-10T09:20:12;2;1;
28026;PMS5003;15344;52.342;-1.290;2023-05-10T09:22:38;2;2;
28026;PMS5003;15344;52.342;-1.290;2023-05-10T09:25:05;7;3;
28026;PMS5003;15344;52.342;-1.290;2023-05-10T09:27:29;5;3;
28026;PMS5003;15344;52.342;-1.290;2023-05-10T09:29:55;2;2;
28026;PMS5003;15344;52.342;-1.290;2023-05-10T09:32:21;5;2;
28026;PMS5003;15344;52.342;-1.290;2023-05-10T09:34:47;2;2;
28026;PMS5003;15344;52.342;-1.290;2023-05-10T09:37:13;1;1;
28026;PMS5003;15344;52.342;-1.290;2023-05-10T09:39:38;2;2;
28026;PMS5003;15344;52.342;-1.290;2023-05-10T09:42:05;2;2;
28026;PMS5003;15344;52.342;-1.290;2023-05-10T09:44:30;3;3;
28026;PMS5003;15344;52.342;-1.290;2023-05-10T09:46:56;1;1;
28026;PMS5003;15344;52.342;-1.290;2023-05-10T09:49:22;1;1;
28026;PMS5003;15344;52.342;-1.290;2023-05-10T09:51:47;2;2;
28026;PMS5003;15344;52.342;-1.290;2023-05-10T09:54:13;4;2;
28026;PMS5003;15344;52.342;-1.290;2023-05-10T09:56:37;3;2;
28026;PMS5003;15344;52.342;-1.290;2023-05-10T09:59:02;3;2;
28026;PMS5003;15344;52.342;-1.290;2023-05-10T10:01:27;3;3;
28026;PMS5003;15344;52.342;-1.290;2023-05-10T10:03:52;3;2;
28026;PMS5003;15344;52.342;-1.290;2023-05-10T10:06:18;2;2;
28026;PMS5003;15344;52.342;-1.290;2023-05-10T10:08:42;3;3;
28026;PMS5003;15344;52.342;-1.290;2023-05-10T10:11:07;2;2;
28026;PMS5003;15344;52.342;-1.290;2023-05-10T10:13:32;3;3;
28026;PMS5003;15344;52.342;-1.290;2023-05-10T10:15:57;4;2;
28026;PMS5003;15344;52.342;-1.290;2023-05-10T10:18:22;2;2;
28026;PMS5003;15344;52.342;-1.290;2023-05-10T10:20:48;4;4;
28026;PMS5003;15344;52.342;-1.290;2023-05-10T10:23:12;3;3;
28026;PMS5003;15344;52.342;-1.290;2023-05-10T10:25:37;4;3;
28026;PMS5003;15344;52.342;-1.290;2023-05-10T10:28:07;1;1;
28026;PMS5003;15344;52.342;-1.290;2023-05-10T10:30:35;2;2;
28026;PMS5003;15344;52.342;-1.290;2023-05-10T10:33:08;6;3;
28026;PMS5003;15344;52.342;-1.290;2023-05-10T10:35:18;1;1;
28026;PMS5003;15344;52.342;-1.290;2023-05-10T10:37:43;2;2;
28026;PMS5003;15344;52.342;-1.290;2023-05-10T10:47:27;2;2;
28026;PMS5003;15344;52.342;-1.290;2023-05-10T10:50:01;1;1;
28026;PMS5003;15344;52.342;-1.290;2023-05-10T10:52:22;1;1;
28026;PMS5003;15344;52.342;-1.290;2023-05-10T10:57:10;4;1;
28026;PMS5003;15344;52.342;-1.290;2023-05-10T10:59:34;3;3;
28026;PMS5003;15344;52.342;-1.290;2023-05-10T11:01:59;2;2;
28026;PMS5003;15344;52.342;-1.290;2023-05-10T11:04:24;0;0;
28026;PMS5003;15344;52.342;-1.290;2023-05-10T11:06:49;1;1;
28026;PMS5003;15344;52.342;-1.290;2023-05-10T11:09:15;4;3;
28026;PMS5003;15344;52.342;-1.290;2023-05-10T11:11:49;2;2;
28026;PMS5003;15344;52.342;-1.290;2023-05-10T11:14:06;5;1;
28026;PMS5003;15344;52.342;-1.290;2023-05-10T11:18:58;2;2;
28026;PMS5003;15344;52.342;-1.290;2023-05-10T11:21:23;1;1;
28026;PMS5003;15344;52.342;-1.290;2023-05-10T11:23:49;3;3;
28026;PMS5003;15344;52.342;-1.290;2023-05-10T11:26:14;3;2;
28026;PMS5003;15344;52.342;-1.290;2023-05-10T11:28:41;3;3;
28026;PMS5003;15344;52.342;-1.290;2023-05-10T11:31:06;1;1;
28026;PMS5003;15344;52.342;-1.290;2023-05-10T11:35:58;2;1;
28026;PMS5003;15344;52.342;-1.290;2023-05-10T11:38:24;3;2;
28026;PMS5003;15344;52.342;-1.290;2023-05-10T11:40:51;4;1;
28026;PMS5003;15344;52.342;-1.290;2023-05-10T11:43:15;1;1;
28026;PMS5003;15344;52.342;-1.290;2023-05-10T11:45:41;1;0;
28026;PMS5003;15344;52.342;-1.290;2023-05-10T11:48:07;2;1;
28026;PMS5003;15344;52.342;-1.290;2023-05-10T11:50:33;4;1;
28026;PMS5003;15344;52.342;-1.290;2023-05-10T11:52:59;2;2;
28026;PMS5003;15344;52.342;-1.290;2023-05-10T11:55:25;2;2;
28026;PMS5003;15344;52.342;-1.290;2023-05-10T11:57:51;2;2;
28026;PMS5003;15344;52.342;-1.290;2023-05-10T12:00:16;1;1;
28026;PMS5003;15344;52.342;-1.290;2023-05-10T12:02:42;2;1;
28026;PMS5003;15344;52.342;-1.290;2023-05-10T12:05:08;4;2;
28026;PMS5003;15344;52.342;-1.290;2023-05-10T12:07:34;1;1;
28026;PMS5003;15344;52.342;-1.290;2023-05-10T12:10:04;3;2;
28026;PMS5003;15344;52.342;-1.290;2023-05-10T12:12:25;2;2;
28026;PMS5003;15344;52.342;-1.290;2023-05-10T12:14:51;1;1;
28026;PMS5003;15344;52.342;-1.290;2023-05-10T12:17:16;3;2;
28026;PMS5003;15344;52.342;-1.290;2023-05-10T12:19:41;3;3;
28026;PMS5003;15344;52.342;-1.290;2023-05-10T12:22:06;4;2;
28026;PMS5003;15344;52.342;-1.290;2023-05-10T12:24:33;1;1;
28026;PMS5003;15344;52.342;-1.290;2023-05-10T12:26:56;2;2;
28026;PMS5003;15344;52.342;-1.290;2023-05-10T12:29:21;2;2;
28026;PMS5003;15344;52.342;-1.290;2023-05-10T12:31:51;2;2;
28026;PMS5003;15344;52.342;-1.290;2023-05-10T12:34:11;4;2;
28026;PMS5003;15344;52.342;-1.290;2023-05-10T12:36:38;3;2;
28026;PMS5003;15344;52.342;-1.290;2023-05-10T12:39:02;6;3;
28026;PMS5003;15344;52.342;-1.290;2023-05-10T12:41:27;5;3;
28026;PMS5003;15344;52.342;-1.290;2023-05-10T12:43:52;8;4;
28026;PMS5003;15344;52.342;-1.290;2023-05-10T12:46:17;4;4;
28026;PMS5003;15344;52.342;-1.290;2023-05-10T12:48:44;4;2;
28026;PMS5003;15344;52.342;-1.290;2023-05-10T12:51:09;3;2;
28026;PMS5003;15344;52.342;-1.290;2023-05-10T12:53:35;3;2;
28026;PMS5003;15344;52.342;-1.290;2023-05-10T12:56:01;3;3;
28026;PMS5003;15344;52.342;-1.290;2023-05-10T12:58:27;1;1;
28026;PMS5003;15344;52.342;-1.290;2023-05-10T13:00:53;1;1;
28026;PMS5003;15344;52.342;-1.290;2023-05-10T13:03:18;1;1;
28026;PMS5003;15344;52.342;-1.290;2023-05-10T13:05:44;3;2;
28026;PMS5003;15344;52.342;-1.290;2023-05-10T13:08:10;4;1;
28026;PMS5003;15344;52.342;-1.290;2023-05-10T13:10:35;1;1;
28026;PMS5003;15344;52.342;-1.290;2023-05-10T13:13:00;1;1;
28026;PMS5003;15344;52.342;-1.290;2023-05-10T13:15:25;0;0;
28026;PMS5003;15344;52.342;-1.290;2023-05-10T13:17:50;0;0;
28026;PMS5003;15344;52.342;-1.290;2023-05-10T13:20:15;2;1;
28026;PMS5003;15344;52.342;-1.290;2023-05-10T13:22:40;2;2;
28026;PMS5003;15344;52.342;-1.290;2023-05-10T13:25:05;1;1;
28026;PMS5003;15344;52.342;-1.290;2023-05-10T13:27:30;3;1;
28026;PMS5003;15344;52.342;-1.290;2023-05-10T13:29:55;0;0;
28026;PMS5003;15344;52.342;-1.290;2023-05-10T13:32:20;2;1;
28026;PMS5003;15344;52.342;-1.290;2023-05-10T13:34:45;2;0;
28026;PMS5003;15344;52.342;-1.290;2023-05-10T13:37:10;1;0;
28026;PMS5003;15344;52.342;-1.290;2023-05-10T13:39:35;2;1;
28026;PMS5003;15344;52.342;-1.290;2023-05-10T13:42:00;2;0;
28026;PMS5003;15344;52.342;-1.290;2023-05-10T13:44:25;1;0;
28026;PMS5003;15344;52.342;-1.290;2023-05-10T13:46:50;2;0;
28026;PMS5003;15344;52.342;-1.290;2023-05-10T13:49:15;0;0;
28026;PMS5003;15344;52.342;-1.290;2023-05-10T13:51:40;0;0;
28026;PMS5003;15344;52.342;-1.290;2023-05-10T13:54:05;0;0;
28026;PMS5003;15344;52.342;-1.290;2023-05-10T13:56:31;0;0;
28026;PMS5003;15344;52.342;-1.290;2023-05-10T13:58:56;0;0;
28026;PMS5003;15344;52.342;-1.290;2023-05-10T14:01:21;0;0;
28026;PMS5003;15344;52.342;-1.290;2023-05-10T14:03:46;0;0;
28026;PMS5003;15344;52.342;-1.290;2023-05-10T14:06:11;0;0;
28026;PMS5003;15344;52.342;-1.290;2023-05-10T14:08:36;0;0;
28026;PMS5003;15344;52.342;-1.290;2023-05-10T14:11:01;1;1;
28026;PMS5003;15344;52.342;-1.290;2023-05-10T14:13:26;1;1;
28026;PMS5003;15344;52.342;-1.290;2023-05-10T14:15:52;1;0;
28026;PMS5003;15344;52.342;-1.290;2023-05-10T14:18:16;1;1;
28026;PMS5003;15344;52.342;-1.290;2023-05-10T14:20:41;1;1;
28026;PMS5003;15344;52.342;-1.290;2023-05-10T14:23:07;1;1;
28026;PMS5003;15344;52.342;-1.290;2023-05-10T14:25:32;0;0;
28026;PMS5003;15344;52.342;-1.290;2023-05-10T14:27:57;0;0;
28026;PMS5003;15344;52.342;-1.290;2023-05-10T14:30:22;3;2;
28026;PMS5003;15344;52.342;-1.290;2023-05-10T14:32:47;2;2;
28026;PMS5003;15344;52.342;-1.290;2023-05-10T14:35:13;1;1;
28026;PMS5003;15344;52.342;-1.290;2023-05-10T14:37:38;0;0;
28026;PMS5003;15344;52.342;-1.290;2023-05-10T14:40:03;1;1;
28026;PMS5003;15344;52.342;-1.290;2023-05-10T14:42:28;1;1;
28026;PMS5003;15344;52.342;-1.290;2023-05-10T14:44:53;3;3;
28026;PMS5003;15344;52.342;-1.290;2023-05-10T14:47:18;1;1;
28026;PMS5003;15344;52.342;-1.290;2023-05-10T14:49:43;2;2;
28026;PMS5003;15344;52.342;-1.290;2023-05-10T14:52:08;1;1;
28026;PMS5003;15344;52.342;-1.290;2023-05-10T14:54:33;2;2;
28026;PMS5003;15344;52.342;-1.290;2023-05-10T14:56:58;1;1;
28026;PMS5003;15344;52.342;-1.290;2023-05-10T14:59:23;2;1;
28026;PMS5003;15344;52.342;-1.290;2023-05-10T15:01:48;1;0;
28026;PMS5003;15344;52.342;-1.290;2023-05-10T15:04:13;0;0;
28026;PMS5003;15344;52.342;-1.290;2023-05-10T15:06:38;1;1;
28026;PMS5003;15344;52.342;-1.290;2023-05-10T15:09:04;0;0;
28026;PMS5003;15344;52.342;-1.290;2023-05-10T15:11:29;2;0;
28026;PMS5003;15344;52.342;-1.290;2023-05-10T15:13:55;2;1;
28026;PMS5003;15344;52.342;-1.290;2023-05-10T15:16:20;0;0;
28026;PMS5003;15344;52.342;-1.290;2023-05-10T15:18:45;0;0;
28026;PMS5003;15344;52.342;-1.290;2023-05-10T15:21:11;0;0;
28026;PMS5003;15344;52.342;-1.290;2023-05-10T15:23:35;0;0;
28026;PMS5003;15344;52.342;-1.290;2023-05-10T15:26:00;0;0;
28026;PMS5003;15344;52.342;-1.290;2023-05-10T15:28:25;0;0;
28026;PMS5003;15344;52.342;-1.290;2023-05-10T15:30:51;0;0;
28026;PMS5003;15344;52.342;-1.290;2023-05-10T15:33:16;0;0;
28026;PMS5003;15344;52.342;-1.290;2023-05-10T15:35:41;0;0;
28026;PMS5003;15344;52.342;-1.290;2023-05-10T15:38:06;0;0;
28026;PMS5003;15344;52.342;-1.290;2023-05-10T15:40:31;0;0;
28026;PMS5003;15344;52.342;-1.290;2023-05-10T15:42:56;0;0;
28026;PMS5003;15344;52.342;-1.290;2023-05-10T15:45:21;0;0;
28026;PMS5003;15344;52.342;-1.290;2023-05-10T15:47:47;0;0;
28026;PMS5003;15344;52.342;-1.290;2023-05-10T15:50:13;1;0;
28026;PMS5003;15344;52.342;-1.290;2023-05-10T15:52:37;0;0;
28026;PMS5003;15344;52.342;-1.290;2023-05-10T15:55:02;0;0;
28026;PMS5003;15344;52.342;-1.290;2023-05-10T15:57:27;1;1;
28026;PMS5003;15344;52.342;-1.290;2023-05-10T15:59:52;0;0;
28026;PMS5003;15344;52.342;-1.290;2023-05-10T16:02:17;0;0;
28026;PMS5003;15344;52.342;-1.290;2023-05-10T16:04:42;0;0;
28026;PMS5003;15344;52.342;-1.290;2023-05-10T16:07:07;0;0;
28026;PMS5003;15344;52.342;-1.290;2023-05-10T16:09:33;0;0;
28026;PMS5003;15344;52.342;-1.290;2023-05-10T16:11:58;0;0;
28026;PMS5003;15344;52.342;-1.290;2023-05-10T16:14:23;0;0;
28026;PMS5003;15344;52.342;-1.290;2023-05-10T16:16:48;1;1;
28026;PMS5003;15344;52.342;-1.290;2023-05-10T16:19:13;0;0;
28026;PMS5003;15344;52.342;-1.290;2023-05-10T16:21:38;1;1;
28026;PMS5003;15344;52.342;-1.290;2023-05-10T16:24:03;0;0;
28026;PMS5003;15344;52.342;-1.290;2023-05-10T16:26:30;0;0;
28026;PMS5003;15344;52.342;-1.290;2023-05-10T16:28:54;1;1;
28026;PMS5003;15344;52.342;-1.290;2023-05-10T16:31:19;0;0;
28026;PMS5003;15344;52.342;-1.290;2023-05-10T16:33:45;0;0;
28026;PMS5003;15344;52.342;-1.290;2023-05-10T16:36:10;2;1;